Time;durP1;ratioP1;P1;durP2;ratioP2;P2;SDS_P1;SDS_P2;PMS_P1;PMS_P2;Temp;Humidity;BMP_temperature;BMP_pressure;BME280_temperature;BME280_humidity;BME280_pressure;Samples;Min_cycle;Max_cycle;Signal;HPM_P1;HPM_P2
2023/04/30 00:01:26;;;;;;;16.05;7.60;;;;;;;14.97;86.04;97957.66;4455721;32;20101;-83
2023/04/30 00:03:53;;;;;;;18.33;8.45;;;;;;;14.73;89.58;97953.97;4441408;32;20110;-83
2023/04/30 00:06:20;;;;;;;18.67;8.27;;;;;;;15.50;85.51;97955.22;4456059;32;20154;-83
2023/04/30 00:08:47;;;;;;;15.10;7.60;;;;;;;15.63;84.33;97963.94;4455693;32;20433;-83
2023/04/30 00:11:14;;;;;;;16.65;7.93;;;;;;;15.14;86.56;97967.00;4455995;32;20534;-83
2023/04/30 00:13:42;;;;;;;16.65;8.73;;;;;;;15.33;85.31;97961.50;4455860;32;20787;-83
2023/04/30 00:16:09;;;;;;;18.85;9.10;;;;;;;14.40;89.90;97962.84;4455566;32;20150;-83
2023/04/30 00:18:37;;;;;;;19.83;9.43;;;;;;;14.78;87.43;97957.13;4442188;32;20167;-83
2023/04/30 00:21:04;;;;;;;19.90;10.60;;;;;;;14.82;87.50;97958.59;4455898;32;20101;-83
2023/04/30 00:23:31;;;;;;;23.65;11.00;;;;;;;14.34;88.86;97963.19;4455295;32;20213;-83
2023/04/30 00:25:58;;;;;;;21.77;10.77;;;;;;;14.22;91.59;97963.06;4455832;32;20080;-83
2023/04/30 00:28:25;;;;;;;23.33;12.70;;;;;;;14.62;88.70;97957.22;4455635;32;20105;-83
2023/04/30 00:30:52;;;;;;;24.83;12.82;;;;;;;15.00;86.47;97956.66;4455282;32;20463;-83
2023/04/30 00:33:19;;;;;;;23.12;12.85;;;;;;;16.24;80.64;97961.66;4455704;32;20405;-83
2023/04/30 00:35:46;;;;;;;24.83;13.20;;;;;;;15.71;82.86;97966.87;4455601;32;20104;-83
2023/04/30 00:38:13;;;;;;;23.27;13.30;;;;;;;15.99;82.80;97970.28;4455194;32;20136;-83
2023/04/30 00:40:41;;;;;;;24.70;13.82;;;;;;;15.48;85.05;97968.31;4455832;32;20443;-83
2023/04/30 00:43:08;;;;;;;24.15;13.50;;;;;;;16.05;82.08;97967.25;4455470;32;20077;-83
2023/04/30 00:45:35;;;;;;;27.15;13.30;;;;;;;16.49;80.10;97969.50;4455174;32;20429;-83
2023/04/30 00:48:02;;;;;;;21.92;12.57;;;;;;;16.61;77.77;97970.44;4455465;32;20115;-83
2023/04/30 00:50:29;;;;;;;24.05;14.07;;;;;;;16.11;81.04;97966.84;4455464;32;20097;-83
2023/04/30 00:52:58;;;;;;;25.55;13.95;;;;;;;16.19;80.94;97969.78;4455160;32;20153;-83
2023/04/30 00:55:25;;;;;;;27.35;13.65;;;;;;;15.59;83.26;97968.47;4455299;32;20073;-83
2023/04/30 00:57:53;;;;;;;27.58;14.63;;;;;;;15.58;85.15;97964.19;4454970;32;20157;-83
2023/04/30 01:00:20;;;;;;;27.65;14.35;;;;;;;15.41;84.91;97961.81;4455478;32;20098;-83
2023/04/30 01:02:48;;;;;;;27.77;15.25;;;;;;;15.24;85.36;97962.91;4441432;32;20157;-83
2023/04/30 01:05:15;;;;;;;28.10;15.60;;;;;;;15.31;86.80;97960.72;4440865;32;20090;-83
2023/04/30 01:07:45;;;;;;;32.88;16.23;;;;;;;15.95;81.48;97969.66;4455218;32;20093;-83
2023/04/30 01:10:13;;;;;;;32.05;17.90;;;;;;;15.63;84.84;97963.94;4455282;32;20125;-83
2023/04/30 01:12:57;;;;;;;37.05;18.90;;;;;;;15.46;86.00;97964.97;4454778;32;20478;-83
2023/04/30 01:15:30;;;;;;;35.88;18.37;;;;;;;14.97;88.63;97957.66;4457186;32;20077;-83
2023/04/30 01:18:06;;;;;;;33.65;18.62;;;;;;;15.68;84.38;97966.25;4443732;32;20105;-83
2023/04/30 01:20:34;;;;;;;35.90;19.40;;;;;;;15.46;85.26;97964.97;4456982;32;20097;-83
2023/04/30 01:23:16;;;;;;;37.47;20.37;;;;;;;15.89;83.57;97963.06;4443148;32;20094;-83
2023/04/30 01:25:58;;;;;;;38.17;22.20;;;;;;;16.23;81.32;97968.63;4457050;32;20112;-83
2023/04/30 01:28:27;;;;;;;42.45;22.05;;;;;;;15.29;87.18;97970.41;4443362;32;20161;-83
2023/04/30 01:30:54;;;;;;;43.38;23.12;;;;;;;15.22;88.59;97977.78;4443197;32;20124;-83
2023/04/30 01:33:20;;;;;;;44.80;23.60;;;;;;;16.01;83.71;97982.25;4456810;32;20124;-83
2023/04/30 01:36:07;;;;;;;50.22;24.65;;;;;;;14.94;90.49;97980.41;4457039;32;20431;-83
2023/04/30 01:39:09;;;;;;;43.35;23.10;;;;;;;16.04;85.06;97986.41;4457088;32;20549;-83
2023/04/30 01:41:50;;;;;;;42.70;22.90;;;;;;;16.11;84.32;97988.50;4456838;32;20155;-83
2023/04/30 01:44:28;;;;;;;42.67;22.40;;;;;;;16.33;83.30;97992.28;4442983;32;20085;-83
2023/04/30 01:47:06;;;;;;;43.17;21.83;;;;;;;16.57;81.27;97992.41;4442798;32;20077;-83
2023/04/30 01:50:13;;;;;;;43.87;21.98;;;;;;;16.47;82.62;97995.63;4457144;32;20115;-83
2023/04/30 01:52:46;;;;;;;39.92;21.70;;;;;;;15.86;86.49;98002.31;4457097;32;20115;-83
2023/04/30 01:55:19;;;;;;;37.92;20.80;;;;;;;15.76;87.09;97995.19;4456680;32;20492;-83
2023/04/30 01:57:56;;;;;;;42.90;22.42;;;;;;;15.31;91.03;97992.78;4456944;32;20069;-83
2023/04/30 02:00:24;;;;;;;38.28;20.42;;;;;;;15.87;88.04;97997.94;4443250;32;20105;-83
2023/04/30 02:02:51;;;;;;;37.92;20.85;;;;;;;16.12;86.78;97998.00;4456638;32;20093;-83
2023/04/30 02:05:19;;;;;;;37.83;19.33;;;;;;;15.78;89.58;97991.56;4456565;32;20085;-83
2023/04/30 02:07:47;;;;;;;37.03;18.80;;;;;;;15.90;88.47;97995.97;4456929;32;20081;-83
2023/04/30 02:10:16;;;;;;;37.05;19.50;;;;;;;16.00;87.71;97990.16;4442811;32;20430;-83
2023/04/30 02:12:43;;;;;;;39.20;19.87;;;;;;;15.91;88.64;97997.63;4456851;32;20097;-83
2023/04/30 02:15:10;;;;;;;34.85;18.58;;;;;;;15.82;89.92;97995.63;4456411;32;20588;-83
2023/04/30 02:17:37;;;;;;;34.00;18.77;;;;;;;15.78;89.50;97988.13;4456928;32;20107;-83
2023/04/30 02:20:04;;;;;;;34.08;18.20;;;;;;;15.09;93.95;97989.00;4456900;32;20089;-83
2023/04/30 02:22:31;;;;;;;33.90;18.00;;;;;;;15.64;91.07;97994.22;4456469;32;20080;-83
2023/04/30 02:24:58;;;;;;;32.88;17.00;;;;;;;15.34;91.66;97976.16;4456444;32;20089;-83
2023/04/30 02:27:25;;;;;;;33.88;17.23;;;;;;;14.93;94.27;97984.75;4456706;32;20089;-83
2023/04/30 02:29:52;;;;;;;32.05;17.10;;;;;;;14.74;94.86;97981.59;4456193;32;20218;-83
2023/04/30 02:32:20;;;;;;;31.25;15.77;;;;;;;15.30;91.23;97991.09;4456863;32;20088;-83
2023/04/30 02:34:47;;;;;;;26.95;14.18;;;;;;;15.59;88.62;97983.22;4456668;32;20093;-83
2023/04/30 02:37:14;;;;;;;25.92;12.90;;;;;;;15.09;91.06;97976.00;4456267;32;20085;-83
2023/04/30 02:39:41;;;;;;;29.60;14.07;;;;;;;14.58;94.09;97984.31;4456614;32;20085;-83
2023/04/30 02:42:08;;;;;;;32.33;14.93;;;;;;;14.63;94.02;97984.00;4456587;32;20101;-83
2023/04/30 02:44:35;;;;;;;27.95;14.13;;;;;;;14.28;97.62;97983.50;4456111;32;20092;-83
2023/04/30 02:47:02;;;;;;;28.40;14.50;;;;;;;14.60;95.48;97992.00;4456615;32;20082;-83
2023/04/30 02:49:28;;;;;;;28.42;14.05;;;;;;;14.13;97.95;97995.56;4456507;32;20093;-83
2023/04/30 02:51:55;;;;;;;27.77;14.30;;;;;;;14.59;95.74;97985.12;4456324;32;20096;-83
2023/04/30 02:54:23;;;;;;;27.27;14.27;;;;;;;14.71;93.72;97987.00;4456428;32;20097;-83
2023/04/30 02:56:50;;;;;;;24.02;13.05;;;;;;;15.23;91.18;97994.19;4456567;32;20090;-83
2023/04/30 02:59:16;;;;;;;25.73;14.15;;;;;;;15.21;89.92;97986.50;4456203;32;20082;-83
2023/04/30 03:01:43;;;;;;;23.35;13.18;;;;;;;14.52;93.47;98002.84;4456641;32;20097;-83
2023/04/30 03:04:11;;;;;;;25.42;13.98;;;;;;;14.79;91.50;98005.56;4455800;32;20093;-83
2023/04/30 03:06:37;;;;;;;24.20;12.70;;;;;;;13.80;96.63;98003.53;4456443;32;20149;-83
2023/04/30 03:09:04;;;;;;;26.33;14.40;;;;;;;13.78;98.01;98015.75;4456540;32;20105;-83
2023/04/30 03:11:32;;;;;;;22.85;12.70;;;;;;;13.58;98.02;98009.91;4456199;32;20088;-83
2023/04/30 03:13:59;;;;;;;24.20;13.70;;;;;;;13.76;97.42;98026.22;4456336;32;20100;-83
2023/04/30 03:16:26;;;;;;;24.20;13.38;;;;;;;14.13;95.02;98027.53;4456464;32;20153;-83
2023/04/30 03:18:53;;;;;;;25.23;13.88;;;;;;;14.07;94.41;98033.09;4455944;32;20097;-82
2023/04/30 03:21:20;;;;;;;23.45;13.68;;;;;;;13.94;95.64;98032.13;4456508;32;20153;-82
2023/04/30 03:23:47;;;;;;;27.42;14.65;;;;;;;14.47;93.27;98028.25;4456213;32;20138;-82
2023/04/30 03:26:14;;;;;;;25.27;13.70;;;;;;;14.27;93.25;98033.72;4456008;32;20108;-82
2023/04/30 03:28:41;;;;;;;26.12;15.05;;;;;;;14.34;93.41;98024.63;4456326;32;20497;-82
2023/04/30 03:31:08;;;;;;;25.42;14.05;;;;;;;14.42;92.54;98019.84;4456362;32;20115;-82
2023/04/30 03:33:35;;;;;;;24.75;13.62;;;;;;;14.91;89.80;98020.41;4455924;32;20098;-82
2023/04/30 03:36:02;;;;;;;24.20;13.95;;;;;;;14.07;94.27;98020.13;4455702;32;20479;-82
2023/04/30 03:38:29;;;;;;;23.98;14.23;;;;;;;14.60;90.00;98026.59;4456172;32;20096;-82
2023/04/30 03:40:56;;;;;;;23.85;13.62;;;;;;;14.26;92.58;98011.31;4455939;32;20497;-82
2023/04/30 03:43:23;;;;;;;24.05;13.40;;;;;;;14.36;91.31;98018.47;4456110;32;20084;-82
2023/04/30 03:45:51;;;;;;;22.15;13.32;;;;;;;14.40;89.67;98017.34;4456101;32;20149;-82
2023/04/30 03:48:18;;;;;;;24.30;13.25;;;;;;;13.63;92.79;98022.62;4455819;32;20105;-82
2023/04/30 03:50:45;;;;;;;22.13;12.23;;;;;;;13.74;93.62;98032.41;4456227;32;20158;-82
2023/04/30 03:53:12;;;;;;;20.33;11.38;;;;;;;13.72;93.14;98031.66;4442320;32;20101;-82
2023/04/30 03:55:39;;;;;;;21.55;12.37;;;;;;;13.68;93.04;98025.81;4456062;32;20435;-82
2023/04/30 03:58:07;;;;;;;20.00;12.10;;;;;;;13.42;94.62;98027.25;4442165;32;20105;-82
2023/04/30 04:00:34;;;;;;;20.70;12.07;;;;;;;13.42;94.48;98034.19;4441944;32;20169;-82
2023/04/30 04:03:01;;;;;;;20.23;11.38;;;;;;;13.02;97.82;98029.34;4456034;32;20497;-82
2023/04/30 04:05:28;;;;;;;20.10;10.90;;;;;;;12.86;99.27;98035.37;4441772;32;20144;-82
2023/04/30 04:07:55;;;;;;;20.75;11.88;;;;;;;13.50;94.85;98029.41;4455577;32;20093;-82
2023/04/30 04:10:22;;;;;;;22.15;11.45;;;;;;;13.16;97.38;98030.34;4456085;32;20112;-82
2023/04/30 04:12:49;;;;;;;19.50;10.77;;;;;;;13.25;96.58;98041.09;4456023;32;20096;-82
2023/04/30 04:15:16;;;;;;;20.88;11.40;;;;;;;13.43;95.28;98049.66;4455519;32;20103;-82
2023/04/30 04:17:43;;;;;;;19.12;10.00;;;;;;;13.83;93.82;98053.50;4455952;32;20457;-82
2023/04/30 04:20:10;;;;;;;18.52;9.40;;;;;;;14.68;87.76;98054.72;4455976;32;20107;-82
2023/04/30 04:22:39;;;;;;;16.77;9.27;;;;;;;14.56;87.71;98070.97;4455524;32;20473;-82
2023/04/30 04:25:07;;;;;;;19.00;9.00;;;;;;;14.43;88.27;98078.63;4455651;32;20080;-82
2023/04/30 04:27:34;;;;;;;15.88;8.63;;;;;;;14.59;85.73;98082.03;4455845;32;20150;-82
2023/04/30 04:30:02;;;;;;;16.50;8.50;;;;;;;14.50;85.58;98090.38;4441392;32;20101;-82
2023/04/30 04:32:31;;;;;;;14.82;7.55;;;;;;;14.43;85.66;98087.25;4455744;32;20081;-82
2023/04/30 04:34:58;;;;;;;15.73;8.40;;;;;;;14.10;86.46;98089.16;4455704;32;20152;-82
2023/04/30 04:37:25;;;;;;;14.82;8.35;;;;;;;13.76;89.26;98098.81;4455334;32;20432;-82
2023/04/30 04:39:52;;;;;;;16.02;8.25;;;;;;;13.03;92.43;98100.12;4455757;32;20093;-82
2023/04/30 04:42:20;;;;;;;15.68;7.60;;;;;;;13.30;90.52;98108.25;4455293;32;20093;-82
2023/04/30 04:44:46;;;;;;;15.35;7.72;;;;;;;12.91;93.75;98111.94;4455445;32;20526;-82
2023/04/30 04:47:15;;;;;;;15.48;8.05;;;;;;;13.03;92.29;98124.25;4455562;32;20101;-82
2023/04/30 04:49:42;;;;;;;14.43;7.60;;;;;;;13.80;87.85;98118.47;4456443;32;20089;-82
2023/04/30 04:52:09;;;;;;;14.48;7.55;;;;;;;13.40;89.33;98114.62;4457521;32;20092;-82
2023/04/30 04:54:36;;;;;;;15.63;7.82;;;;;;;13.48;88.72;98117.63;4457280;32;20157;-82
2023/04/30 04:57:03;;;;;;;14.63;7.78;;;;;;;12.51;92.79;98122.62;4457008;32;20085;-82
2023/04/30 04:59:30;;;;;;;16.90;7.90;;;;;;;12.75;92.37;98124.81;4457424;32;20352;-82
2023/04/30 05:01:56;;;;;;;16.05;7.90;;;;;;;12.13;95.13;98133.09;4457395;32;20085;-82
2023/04/30 05:04:23;;;;;;;16.10;8.57;;;;;;;12.30;94.36;98132.25;4456634;32;20077;-82
2023/04/30 05:06:50;;;;;;;14.75;7.53;;;;;;;12.18;95.67;98132.84;4457295;32;20097;-82
2023/04/30 05:09:17;;;;;;;;;;;;;;;13.16;91.32;98136.56;4457560;32;20115;-82
2023/04/30 05:11:45;;;;;;;12.15;6.12;;;;;;;13.46;87.60;98147.13;4457094;32;20319;-82
2023/04/30 05:14:12;;;;;;;13.95;6.72;;;;;;;14.00;85.11;98138.12;4457236;32;20126;-82
2023/04/30 05:16:38;;;;;;;13.32;6.12;;;;;;;14.67;80.81;98147.38;4457265;32;20093;-82
2023/04/30 05:19:08;;;;;;;14.10;6.75;;;;;;;14.64;81.00;98147.50;4456816;32;20119;-82
2023/04/30 05:21:35;;;;;;;11.77;5.57;;;;;;;15.24;77.71;98144.00;4457223;32;20085;-82
2023/04/30 05:24:02;;;;;;;14.20;6.90;;;;;;;15.57;74.56;98160.16;4457112;32;20077;-82
2023/04/30 05:26:30;;;;;;;12.43;6.10;;;;;;;16.49;71.38;98154.41;4456930;32;20503;-83
2023/04/30 05:28:56;;;;;;;12.48;5.72;;;;;;;17.02;69.22;98165.72;4457248;32;20467;-82
2023/04/30 05:31:23;;;;;;;12.43;6.03;;;;;;;17.14;67.44;98172.69;4456783;32;20161;-82
2023/04/30 05:33:50;;;;;;;13.50;6.68;;;;;;;17.12;68.31;98169.38;4457084;32;20080;-82
2023/04/30 05:36:17;;;;;;;11.55;5.87;;;;;;;16.93;68.97;98172.37;4457175;32;20089;-82
2023/04/30 05:38:44;;;;;;;9.98;5.20;;;;;;;16.71;67.89;98175.56;4456696;32;20077;-82
2023/04/30 05:41:12;;;;;;;14.80;7.03;;;;;;;15.55;72.36;98169.84;4457138;32;20103;-82
2023/04/30 05:43:38;;;;;;;12.27;5.90;;;;;;;15.55;75.00;98171.59;4456961;32;20093;-82
2023/04/30 05:46:05;;;;;;;14.10;6.18;;;;;;;16.02;71.05;98157.44;4456801;32;20093;-82
2023/04/30 05:48:32;;;;;;;12.07;6.00;;;;;;;16.30;70.55;98159.13;4457112;32;20093;-82
2023/04/30 05:50:59;;;;;;;12.57;5.60;;;;;;;16.87;68.98;98172.75;4457076;32;20092;-82
2023/04/30 05:53:26;;;;;;;11.60;5.57;;;;;;;16.66;68.92;98174.13;4456664;32;20085;-83
2023/04/30 05:55:53;;;;;;;13.32;6.00;;;;;;;15.90;70.41;98180.69;4456940;32;20093;-82
2023/04/30 05:58:20;;;;;;;12.30;6.22;;;;;;;16.29;69.17;98181.72;4442937;32;20550;-82
2023/04/30 06:00:50;;;;;;;13.02;6.20;;;;;;;16.71;68.04;98180.78;4456381;32;20130;-83
2023/04/30 06:03:18;;;;;;;11.40;5.70;;;;;;;16.51;68.90;98181.19;4456837;32;20074;-83
2023/04/30 06:05:48;;;;;;;12.75;5.97;;;;;;;15.98;71.53;98185.44;4456983;32;20123;-83
2023/04/30 06:08:15;;;;;;;12.85;6.43;;;;;;;16.08;70.20;98167.47;4456476;32;20506;-82
2023/04/30 06:10:42;;;;;;;12.50;6.43;;;;;;;17.25;66.80;98178.03;4456826;32;20089;-83
2023/04/30 06:13:09;;;;;;;12.93;6.22;;;;;;;17.18;64.99;98175.94;4442973;32;20394;-83
2023/04/30 06:15:36;;;;;;;13.55;6.85;;;;;;;16.95;67.66;98178.31;4456506;32;20093;-83
2023/04/30 06:18:02;;;;;;;13.55;7.35;;;;;;;17.63;65.92;98175.38;4456864;32;20100;-83
2023/04/30 06:20:30;;;;;;;13.10;6.72;;;;;;;18.13;63.57;98178.87;4456526;32;20097;-82
2023/04/30 06:22:56;;;;;;;13.35;6.90;;;;;;;18.53;60.66;98188.22;4456771;32;20097;-82
2023/04/30 06:25:23;;;;;;;12.95;6.60;;;;;;;18.45;60.87;98189.59;4456602;32;20097;-83
2023/04/30 06:27:52;;;;;;;12.27;6.57;;;;;;;19.13;58.77;98188.09;4456372;32;20185;-82
2023/04/30 06:30:19;;;;;;;13.30;6.80;;;;;;;18.17;59.45;98188.13;4456806;32;20135;-83
2023/04/30 06:32:46;;;;;;;14.27;7.62;;;;;;;17.53;63.74;98179.56;4456691;32;20116;-83
2023/04/30 06:35:13;;;;;;;15.35;7.60;;;;;;;17.09;66.34;98169.56;4456239;32;20115;-82
2023/04/30 06:37:40;;;;;;;13.88;7.55;;;;;;;16.93;67.91;98180.19;4442785;32;20139;-83
2023/04/30 06:40:07;;;;;;;14.48;7.18;;;;;;;17.80;65.56;98181.25;4456661;32;20146;-83
2023/04/30 06:42:34;;;;;;;15.15;7.47;;;;;;;18.33;60.62;98177.44;4456287;32;20098;-82
2023/04/30 06:45:02;;;;;;;14.98;6.68;;;;;;;18.67;60.40;98183.69;4456485;32;20092;-83
2023/04/30 06:47:33;;;;;;;14.05;7.45;;;;;;;18.91;58.34;98185.44;4456686;32;20415;-83
2023/04/30 06:50:01;;;;;;;14.68;7.20;;;;;;;19.00;57.37;98190.81;4456332;32;20145;-82
2023/04/30 06:52:29;;;;;;;14.98;7.40;;;;;;;17.77;61.73;98178.87;4456636;32;20152;-83
2023/04/30 06:54:56;;;;;;;13.23;7.07;;;;;;;18.53;60.47;98185.63;4442568;32;20460;-83
2023/04/30 06:57:24;;;;;;;14.73;7.15;;;;;;;18.93;58.66;98188.78;4456302;32;20111;-83
2023/04/30 06:59:51;;;;;;;14.18;6.87;;;;;;;18.14;61.49;98182.31;4456513;32;20107;-82
2023/04/30 07:02:18;;;;;;;13.10;6.40;;;;;;;18.38;60.14;98184.94;4456598;32;20149;-83
2023/04/30 07:04:48;;;;;;;15.30;7.25;;;;;;;17.63;62.70;98175.38;4455812;32;20111;-83
2023/04/30 07:07:15;;;;;;;14.13;6.82;;;;;;;17.67;63.91;98177.81;4456517;32;20111;-82
2023/04/30 07:09:42;;;;;;;13.98;7.07;;;;;;;18.27;61.43;98171.81;4456152;32;20145;-82
2023/04/30 07:12:10;;;;;;;16.12;7.80;;;;;;;17.75;61.12;98160.69;4455523;32;20162;-83
2023/04/30 07:14:38;;;;;;;12.20;6.62;;;;;;;17.51;63.75;98176.25;4456384;32;20112;-83
2023/04/30 07:17:05;;;;;;;13.25;6.62;;;;;;;17.74;62.56;98168.62;4456095;32;20096;-83
2023/04/30 07:19:31;;;;;;;14.40;7.03;;;;;;;17.21;63.51;98162.69;4456469;32;20572;-83
2023/04/30 07:21:58;;;;;;;13.88;7.00;;;;;;;16.84;67.46;98167.75;4456571;32;20093;-82
2023/04/30 07:24:25;;;;;;;12.37;5.45;;;;;;;17.20;65.68;98168.84;4455867;32;20159;-83
2023/04/30 07:26:52;;;;;;;13.52;6.57;;;;;;;17.04;65.33;98156.00;4456432;32;20158;-82
2023/04/30 07:29:20;;;;;;;12.73;6.35;;;;;;;17.04;67.17;98166.44;4456333;32;20364;-83
2023/04/30 07:31:48;;;;;;;13.15;6.55;;;;;;;17.81;62.54;98162.88;4455998;32;20073;-82
2023/04/30 07:34:15;;;;;;;11.20;5.62;;;;;;;18.16;61.17;98164.75;4456280;32;20102;-82
2023/04/30 07:36:42;;;;;;;11.63;5.60;;;;;;;18.17;60.13;98159.41;4456317;32;20093;-82
2023/04/30 07:39:10;;;;;;;11.63;5.25;;;;;;;17.73;62.94;98151.28;4455824;32;20136;-82
2023/04/30 07:41:37;;;;;;;12.68;5.15;;;;;;;17.29;63.56;98149.97;4456320;32;20077;-82
2023/04/30 07:44:04;;;;;;;12.60;5.18;;;;;;;17.38;62.76;98157.16;4456187;32;20102;-82
2023/04/30 07:46:31;;;;;;;11.93;5.85;;;;;;;17.84;60.74;98162.66;4455874;32;20489;-82
2023/04/30 07:48:58;;;;;;;10.48;5.20;;;;;;;18.09;59.32;98164.37;4456214;32;20099;-82
2023/04/30 07:51:25;;;;;;;12.73;5.62;;;;;;;18.05;59.19;98159.47;4456185;32;20076;-82
2023/04/30 07:53:52;;;;;;;11.00;5.40;;;;;;;18.76;57.73;98172.56;4455776;32;20109;-82
2023/04/30 07:56:20;;;;;;;11.57;5.25;;;;;;;19.43;55.19;98171.84;4456179;32;20670;-82
2023/04/30 07:58:47;;;;;;;10.45;4.40;;;;;;;19.42;55.18;98169.38;4455855;32;20089;-82
2023/04/30 08:01:14;;;;;;;11.10;4.95;;;;;;;18.60;55.07;98176.38;4456077;32;20150;-82
2023/04/30 08:03:41;;;;;;;10.35;4.82;;;;;;;18.46;57.22;98188.66;4455598;32;20105;-82
2023/04/30 08:06:08;;;;;;;11.80;5.05;;;;;;;19.00;57.07;98185.56;4455655;32;20123;-82
2023/04/30 08:08:35;;;;;;;10.07;4.82;;;;;;;19.47;55.19;98180.31;4456077;32;20105;-82
2023/04/30 08:11:02;;;;;;;9.25;4.20;;;;;;;18.83;53.85;98186.00;4456001;32;20424;-82
2023/04/30 08:13:29;;;;;;;11.05;4.90;;;;;;;18.32;57.66;98195.84;4455544;32;20097;-82
2023/04/30 08:15:56;;;;;;;14.00;5.12;;;;;;;18.75;56.61;98190.97;4455947;32;20085;-82
2023/04/30 08:18:23;;;;;;;11.45;5.57;;;;;;;17.91;58.57;98189.16;4455939;32;20107;-82
2023/04/30 08:20:50;;;;;;;12.05;5.32;;;;;;;18.63;57.54;98195.28;4455538;32;20424;-82
2023/04/30 08:23:17;;;;;;;10.57;4.72;;;;;;;19.11;53.95;98186.56;4455646;32;20089;-82
2023/04/30 08:25:44;;;;;;;8.93;4.35;;;;;;;19.60;53.05;98171.44;4455701;32;20101;-82
2023/04/30 08:28:11;;;;;;;10.18;4.55;;;;;;;19.81;53.70;98184.66;4455423;32;20084;-82
2023/04/30 08:30:38;;;;;;;8.80;3.92;;;;;;;19.78;51.38;98182.28;4455832;32;20077;-82
2023/04/30 08:33:05;;;;;;;9.95;4.40;;;;;;;18.87;53.11;98187.44;4455787;32;20105;-82
2023/04/30 08:35:32;;;;;;;9.80;5.00;;;;;;;19.40;54.52;98181.75;4441516;32;20368;-82
2023/04/30 08:37:59;;;;;;;11.70;5.28;;;;;;;19.94;51.64;98176.66;4455676;32;20158;-82
2023/04/30 08:40:26;;;;;;;10.95;5.03;;;;;;;20.42;49.70;98181.56;4455673;32;20231;-82
2023/04/30 08:43:13;;;;;;;9.77;4.47;;;;;;;21.82;45.51;98182.94;4455712;32;20085;-82
2023/04/30 08:45:41;;;;;;;11.95;5.22;;;;;;;22.12;44.02;98174.22;4441524;32;20097;-82
2023/04/30 08:48:13;;;;;;;11.35;4.90;;;;;;;21.12;49.61;98185.44;4455265;32;20104;-82
2023/04/30 08:50:41;;;;;;;13.50;5.18;;;;;;;21.27;47.48;98179.78;4441908;32;20076;-82
2023/04/30 08:53:09;;;;;;;10.45;4.80;;;;;;;21.91;45.73;98176.06;4441656;32;20593;-82
2023/04/30 08:55:38;;;;;;;10.18;5.10;;;;;;;21.60;45.66;98176.09;4455017;32;20101;-82
2023/04/30 08:58:07;;;;;;;9.93;4.57;;;;;;;21.46;44.85;98172.97;4455467;32;20439;-82
2023/04/30 09:00:37;;;;;;;9.68;4.20;;;;;;;21.50;44.36;98180.47;4455435;32;20541;-82
2023/04/30 09:03:04;;;;;;;9.07;3.78;;;;;;;20.22;48.88;98173.50;4454950;32;20431;-82
2023/04/30 09:05:31;;;;;;;9.63;4.05;;;;;;;20.41;47.39;98164.16;4455175;32;20481;-82
2023/04/30 09:07:58;;;;;;;9.88;3.87;;;;;;;20.58;46.33;98179.37;4441436;32;20081;-82
2023/04/30 09:10:33;;;;;;;8.98;4.10;;;;;;;20.34;46.65;98184.78;4454999;32;20340;-82
2023/04/30 09:13:02;;;;;;;10.43;4.03;;;;;;;20.34;47.30;98178.72;4455319;32;20162;-82
2023/04/30 09:15:29;;;;;;;7.68;3.65;;;;;;;20.94;45.81;98188.63;4455292;32;20475;-82
2023/04/30 09:18:17;;;;;;;10.10;5.00;;;;;;;18.67;48.79;98195.91;4454794;32;20093;-82
2023/04/30 09:21:04;;;;;;;10.52;4.37;;;;;;;18.61;50.43;98194.56;4455313;32;20069;-82
2023/04/30 09:23:31;;;;;;;9.27;4.03;;;;;;;18.56;51.34;98183.59;4454792;32;20089;-82
2023/04/30 09:25:59;;;;;;;9.18;4.47;;;;;;;20.09;48.70;98180.66;4454921;32;20093;-82
2023/04/30 09:28:27;;;;;;;9.75;3.67;;;;;;;20.13;46.88;98186.50;4454980;32;20179;-82
2023/04/30 09:30:58;;;;;;;10.20;4.35;;;;;;;19.89;46.93;98191.91;4454611;32;20108;-82
2023/04/30 09:33:25;;;;;;;8.43;3.58;;;;;;;19.59;48.05;98182.03;4455108;32;20162;-82
2023/04/30 09:35:52;;;;;;;8.82;4.20;;;;;;;18.91;49.06;98173.19;4456488;32;20081;-82
2023/04/30 09:38:29;;;;;;;9.43;4.28;;;;;;;19.04;49.83;98184.41;4456767;32;20089;-82
2023/04/30 09:40:59;;;;;;;11.07;4.97;;;;;;;19.49;48.20;98186.28;4457207;32;20077;-82
2023/04/30 09:43:28;;;;;;;8.55;4.05;;;;;;;19.12;49.91;98183.81;4457180;32;20101;-82
2023/04/30 09:45:57;;;;;;;9.68;3.80;;;;;;;19.46;45.28;98176.03;4442624;32;20170;-82
2023/04/30 09:48:28;;;;;;;6.68;3.10;;;;;;;19.88;45.70;98180.59;4457098;32;20093;-82
2023/04/30 09:50:55;;;;;;;7.10;2.97;;;;;;;20.40;44.56;98181.66;4456880;32;20093;-82
2023/04/30 09:53:23;;;;;;;8.63;3.75;;;;;;;20.84;43.51;98179.87;4456897;32;20424;-82
2023/04/30 09:55:50;;;;;;;8.32;3.95;;;;;;;21.81;42.72;98170.78;4456934;32;20129;-82
2023/04/30 09:58:18;;;;;;;8.70;4.10;;;;;;;22.51;42.41;98187.41;4456547;32;20125;-82
2023/04/30 10:00:47;;;;;;;6.03;2.55;;;;;;;22.22;42.10;98180.34;4456952;32;20435;-82
2023/04/30 10:03:14;;;;;;;8.02;3.28;;;;;;;21.06;41.92;98178.94;4457041;32;20085;-82
2023/04/30 10:05:46;;;;;;;8.15;3.35;;;;;;;19.82;46.46;98182.84;4456361;32;20146;-82
2023/04/30 10:08:18;;;;;;;7.68;3.37;;;;;;;20.80;44.54;98173.22;4456964;32;20104;-82
2023/04/30 10:10:48;;;;;;;5.90;2.60;;;;;;;21.08;43.15;98171.75;4443031;32;20127;-82
2023/04/30 10:13:17;;;;;;;6.20;2.35;;;;;;;22.02;40.24;98168.09;4442645;32;20119;-82
2023/04/30 10:15:50;;;;;;;7.15;3.17;;;;;;;21.67;39.72;98173.75;4456740;32;20101;-82
2023/04/30 10:18:21;;;;;;;7.68;3.00;;;;;;;19.78;44.86;98174.41;4456781;32;20140;-82
2023/04/30 10:20:50;;;;;;;6.95;2.62;;;;;;;19.34;46.95;98165.53;4442784;32;20112;-82
2023/04/30 10:23:17;;;;;;;6.68;2.75;;;;;;;20.18;47.59;98173.88;4442902;32;20104;-82
2023/04/30 10:25:44;;;;;;;5.72;2.30;;;;;;;20.72;44.75;98165.13;4456683;32;20589;-82
2023/04/30 10:28:11;;;;;;;5.87;2.55;;;;;;;20.33;46.54;98175.28;4456394;32;20152;-82
2023/04/30 10:30:41;;;;;;;4.55;2.20;;;;;;;21.48;44.37;98171.91;4443264;32;20125;-82
2023/04/30 10:33:14;;;;;;;7.28;2.67;;;;;;;21.65;41.05;98173.88;4456458;32;20424;-83
2023/04/30 10:35:48;;;;;;;8.25;2.75;;;;;;;20.51;44.25;98160.69;4456757;32;20084;-83
2023/04/30 10:38:23;;;;;;;5.65;2.25;;;;;;;19.51;45.94;98169.50;4442896;32;20150;-83
2023/04/30 10:40:55;;;;;;;7.43;2.80;;;;;;;18.98;47.67;98165.72;4442602;32;20565;-82
2023/04/30 10:43:23;;;;;;;5.78;2.55;;;;;;;20.05;46.02;98162.72;4456668;32;20136;-83
2023/04/30 10:45:50;;;;;;;9.85;3.00;;;;;;;21.01;44.18;98167.97;4456439;32;20089;-83
2023/04/30 10:48:24;;;;;;;6.95;2.90;;;;;;;20.45;44.84;98165.63;4456229;32;20167;-83
2023/04/30 10:50:53;;;;;;;6.55;2.53;;;;;;;19.80;45.71;98169.06;4456676;32;20134;-83
2023/04/30 10:53:21;;;;;;;7.55;2.30;;;;;;;19.63;44.57;98173.81;4456584;32;20112;-83
2023/04/30 10:55:53;;;;;;;7.57;2.80;;;;;;;20.12;45.30;98161.28;4455134;32;20097;-83
2023/04/30 10:58:24;;;;;;;6.40;2.40;;;;;;;20.54;44.03;98164.03;4456550;32;20142;-83
2023/04/30 11:01:05;;;;;;;6.65;2.50;;;;;;;19.79;44.89;98159.53;4456622;32;20077;-83
2023/04/30 11:03:33;;;;;;;6.95;2.45;;;;;;;21.10;42.40;98167.22;4456407;32;20107;-83
2023/04/30 11:06:07;;;;;;;5.62;1.92;;;;;;;21.29;42.20;98161.28;4456494;32;20101;-83
2023/04/30 11:08:36;;;;;;;5.28;2.25;;;;;;;20.94;42.67;98159.78;4456127;32;20439;-83
2023/04/30 11:11:04;;;;;;;4.12;2.20;;;;;;;21.56;42.48;98169.41;4442692;32;20077;-83
2023/04/30 11:13:43;;;;;;;6.43;2.37;;;;;;;20.28;43.42;98160.88;4456562;32;20117;-83
2023/04/30 11:16:11;;;;;;;7.20;2.50;;;;;;;19.84;43.76;98166.06;4442272;32;20496;-83
2023/04/30 11:18:44;;;;;;;5.50;2.40;;;;;;;20.18;42.77;98155.53;4456450;32;20099;-83
2023/04/30 11:21:12;;;;;;;6.57;2.30;;;;;;;19.64;43.79;98165.00;4456508;32;20081;-83
2023/04/30 11:23:43;;;;;;;6.90;2.53;;;;;;;20.06;43.98;98154.72;4456040;32;20104;-83
2023/04/30 11:26:10;;;;;;;5.30;2.20;;;;;;;21.08;42.20;98162.09;4442491;32;20432;-83
2023/04/30 11:28:37;;;;;;;5.10;2.05;;;;;;;21.56;42.00;98165.97;4442427;32;20150;-83
2023/04/30 11:31:04;;;;;;;8.40;2.92;;;;;;;20.53;41.92;98165.00;4456113;32;20091;-83